createdAt,value
2018-10-07T00:01:25.490Z,95449.67
2018-10-07T00:03:55.113Z,95452.31
2018-10-07T00:06:24.932Z,95453.77
2018-10-07T00:08:54.977Z,95454.31
2018-10-07T00:11:24.579Z,95456.66
2018-10-07T00:13:55.209Z,95454.41
2018-10-07T00:16:25.285Z,95451.33
2018-10-07T00:18:54.937Z,95455.32
2018-10-07T00:21:24.591Z,95447.52
2018-10-07T00:24:06.327Z,95456.09
2018-10-07T00:26:36.151Z,95454.91
2018-10-07T00:29:12.930Z,95457.13
2018-10-07T00:31:47.666Z,95456.13
2018-10-07T00:34:18.689Z,95459.51
2018-10-07T00:36:48.701Z,95456.11
2018-10-07T00:39:18.373Z,95455.98
2018-10-07T00:41:48.035Z,95457.96
2018-10-07T00:44:19.669Z,95453.83
2018-10-07T00:46:49.420Z,95452.65
2018-10-07T00:49:19.087Z,95450.87
2018-10-07T00:51:48.830Z,95449.87
2018-10-07T00:54:19.904Z,95445.14
2018-10-07T00:56:50.477Z,95450.86
2018-10-07T00:59:22.896Z,95449.63
2018-10-07T01:01:52.691Z,95451.34
2018-10-07T01:04:22.485Z,95453.39
2018-10-07T01:06:52.118Z,95451.35
2018-10-07T01:09:23.324Z,95450.84
2018-10-07T01:11:53.588Z,95457.02
2018-10-07T01:14:23.387Z,95452.27
2018-10-07T01:16:53.522Z,95454.27
2018-10-07T01:19:24.344Z,95455.09
2018-10-07T01:21:54.370Z,95454.52
2018-10-07T01:24:24.060Z,95450.98
2018-10-07T01:26:54.069Z,95454.52
2018-10-07T01:29:24.657Z,95453.03
2018-10-07T01:31:54.355Z,95455.17
2018-10-07T01:34:24.076Z,95453.97
2018-10-07T01:36:55.818Z,95452.70
2018-10-07T01:39:26.232Z,95453.60
2018-10-07T01:41:56.370Z,95460.61
2018-10-07T01:44:26.047Z,95472.45
2018-10-07T01:46:55.917Z,95468.89
2018-10-07T01:49:27.822Z,95465.41
2018-10-07T01:51:58.320Z,95472.16
2018-10-07T01:54:28.608Z,95469.51
2018-10-07T01:56:58.297Z,95468.52
2018-10-07T01:59:29.345Z,95475.56
2018-10-07T02:02:00.241Z,95467.53
2018-10-07T02:04:33.298Z,95463.32
2018-10-07T02:07:15.354Z,95470.61
2018-10-07T02:10:18.252Z,95472.34
2018-10-07T02:12:48.438Z,95473.14
2018-10-07T02:15:38.236Z,95472.63
2018-10-07T02:18:07.883Z,95475.06
2018-10-07T02:20:41.450Z,95472.76
2018-10-07T02:23:17.876Z,95476.02
2018-10-07T02:25:47.905Z,95473.36
2018-10-07T02:28:34.474Z,95480.94
2018-10-07T02:31:24.806Z,95476.69
2018-10-07T02:33:58.932Z,95480.55
2018-10-07T02:36:29.126Z,95477.09
2018-10-07T02:38:58.867Z,95485.69
2018-10-07T02:41:28.529Z,95475.52
2018-10-07T02:43:58.592Z,95480.89
2018-10-07T02:46:28.299Z,95485.23
2018-10-07T02:48:57.938Z,95478.27
2018-10-07T02:51:27.601Z,95477.47
2018-10-07T02:53:57.946Z,95480.41
2018-10-07T02:56:27.806Z,95481.50
2018-10-07T02:58:58.668Z,95483.13
2018-10-07T03:01:28.277Z,95485.84
2018-10-07T03:03:57.922Z,95491.23
2018-10-07T03:06:27.591Z,95496.95
2018-10-07T03:08:57.728Z,95501.25
2018-10-07T03:11:28.378Z,95500.73
2018-10-07T03:14:07.131Z,95515.38
2018-10-07T03:16:46.644Z,95504.72
2018-10-07T03:19:28.699Z,95509.86
2018-10-07T03:22:00.434Z,95509.94
2018-10-07T03:24:40.583Z,95512.15
2018-10-07T03:27:16.534Z,95514.39
2018-10-07T03:30:01.249Z,95518.48
2018-10-07T03:32:31.401Z,95509.14
2018-10-07T03:35:01.387Z,95519.42
2018-10-07T03:37:31.225Z,95520.52
2018-10-07T03:40:00.902Z,95517.37
2018-10-07T03:42:30.633Z,95518.48
2018-10-07T03:45:00.269Z,95515.86
2018-10-07T03:47:30.256Z,95514.27
2018-10-07T03:49:59.958Z,95518.02
2018-10-07T03:52:29.726Z,95522.95
2018-10-07T03:54:59.413Z,95528.08
2018-10-07T03:57:29.377Z,95530.22
2018-10-07T03:59:59.069Z,95530.22
2018-10-07T04:02:29.074Z,95529.77
2018-10-07T04:04:58.719Z,95538.10
2018-10-07T04:07:28.404Z,95533.82
2018-10-07T04:09:58.129Z,95530.33
2018-10-07T04:12:27.773Z,95535.22
2018-10-07T04:14:57.457Z,95532.83
2018-10-07T04:17:27.119Z,95535.77
2018-10-07T04:19:57.261Z,95537.72
2018-10-07T04:22:26.932Z,95540.41
2018-10-07T04:24:56.685Z,95543.89
2018-10-07T04:27:26.870Z,95535.88
2018-10-07T04:29:56.512Z,95538.02
2018-10-07T04:32:26.219Z,95545.84
2018-10-07T04:34:55.901Z,95544.80
2018-10-07T04:37:25.532Z,95552.30
2018-10-07T04:39:55.343Z,95554.22
2018-10-07T04:42:31.286Z,95559.63
2018-10-07T04:45:01.644Z,95559.38
2018-10-07T04:47:31.317Z,95554.34
2018-10-07T04:50:00.980Z,95549.55
2018-10-07T04:52:30.642Z,95554.68
2018-10-07T04:55:01.354Z,95562.44
2018-10-07T04:57:33.911Z,95562.46
2018-10-07T05:00:03.727Z,95561.12
2018-10-07T05:02:33.417Z,95561.97
2018-10-07T05:05:03.402Z,95569.20
2018-10-07T05:07:33.157Z,95576.96
2018-10-07T05:10:15.381Z,95581.23
2018-10-07T05:12:45.747Z,95575.88
2018-10-07T05:15:15.464Z,95584.98
2018-10-07T05:17:45.186Z,95583.11
2018-10-07T05:20:15.796Z,95597.03
2018-10-07T05:22:45.501Z,95597.88
2018-10-07T05:25:15.210Z,95603.23
2018-10-07T05:27:45.391Z,95609.42
2018-10-07T05:30:15.342Z,95615.54
2018-10-07T05:32:45.417Z,95617.95
2018-10-07T05:35:15.407Z,95620.05
2018-10-07T05:37:45.097Z,95620.84
2018-10-07T05:40:15.285Z,95621.11
2018-10-07T05:42:44.981Z,95632.36
2018-10-07T05:45:14.753Z,95634.76
2018-10-07T05:47:45.006Z,95640.08
2018-10-07T05:50:14.691Z,95649.17
2018-10-07T05:52:44.357Z,95647.02
2018-10-07T05:55:14.090Z,95653.72
2018-10-07T05:57:48.727Z,95655.59
2018-10-07T06:00:20.577Z,95669.20
2018-10-07T06:02:50.331Z,95668.93
2018-10-07T06:05:20.322Z,95673.17
2018-10-07T06:07:49.983Z,95681.20
2018-10-07T06:10:20.056Z,95681.69
2018-10-07T06:12:56.913Z,95683.83
2018-10-07T06:15:35.363Z,95683.25
2018-10-07T06:18:15.241Z,95685.34
2018-10-07T06:20:46.647Z,95689.57
2018-10-07T06:23:17.337Z,95698.62
2018-10-07T06:25:48.111Z,95699.69
2018-10-07T06:28:17.785Z,95706.86
2018-10-07T06:30:48.105Z,95720.47
2018-10-07T06:33:19.333Z,95719.34
2018-10-07T06:35:49.014Z,95722.82
2018-10-07T06:38:18.727Z,95721.41
2018-10-07T06:40:48.435Z,95732.34
2018-10-07T06:43:19.224Z,95732.00
2018-10-07T06:45:50.724Z,95742.38
2018-10-07T06:48:20.566Z,95742.58
2018-10-07T06:50:50.385Z,95741.13
2018-10-07T06:53:20.269Z,95739.91
2018-10-07T06:55:50.121Z,95747.05
2018-10-07T06:58:20.328Z,95752.02
2018-10-07T07:00:50.050Z,95755.88
2018-10-07T07:03:19.790Z,95757.89
2018-10-07T07:05:49.522Z,95773.86
2018-10-07T07:08:20.742Z,95770.75
2018-10-07T07:10:51.409Z,95776.80
2018-10-07T07:13:22.039Z,95777.70
2018-10-07T07:15:51.921Z,95781.31
2018-10-07T07:18:21.608Z,95779.95
2018-10-07T07:20:51.413Z,95780.61
2018-10-07T07:23:22.133Z,95797.77
2018-10-07T07:25:52.725Z,95789.67
2018-10-07T07:28:23.118Z,95798.53
2018-10-07T07:30:55.288Z,95800.77
2018-10-07T07:33:27.527Z,95811.80
2018-10-07T07:35:57.238Z,95815.08
2018-10-07T07:38:29.243Z,95812.88
2018-10-07T07:40:59.741Z,95814.78
2018-10-07T07:43:32.443Z,95809.13
2018-10-07T07:46:03.689Z,95816.89
2018-10-07T07:48:33.986Z,95811.38
2018-10-07T07:51:07.326Z,95820.41
2018-10-07T07:53:37.104Z,95823.11
2018-10-07T07:56:23.267Z,95828.12
2018-10-07T07:58:52.978Z,95829.53
2018-10-07T08:01:35.484Z,95826.66
2018-10-07T08:04:05.201Z,95835.03
2018-10-07T08:06:35.275Z,95826.50
2018-10-07T08:09:08.323Z,95827.69
2018-10-07T08:11:38.412Z,95836.92
2018-10-07T08:14:08.303Z,95828.41
2018-10-07T08:16:38.249Z,95837.85
2018-10-07T08:19:07.973Z,95833.80
2018-10-07T08:21:37.697Z,95834.19
2018-10-07T08:24:07.346Z,95834.14
2018-10-07T08:26:38.200Z,95835.31
2018-10-07T08:29:28.553Z,95844.37
2018-10-07T08:31:59.758Z,95849.00
2018-10-07T08:34:30.507Z,95841.45
2018-10-07T08:37:02.482Z,95841.11
2018-10-07T08:39:33.685Z,95846.77
2018-10-07T08:42:03.722Z,95855.06
2018-10-07T08:44:36.172Z,95866.67
2018-10-07T08:47:06.164Z,95872.38
2018-10-07T08:49:36.272Z,95881.83
2018-10-07T08:52:06.405Z,95884.53
2018-10-07T08:54:36.915Z,95889.09
2018-10-07T08:57:06.661Z,95894.08
2018-10-07T08:59:36.575Z,95904.62
2018-10-07T09:02:06.786Z,95903.77
2018-10-07T09:04:42.552Z,95907.61
2018-10-07T09:07:18.424Z,95902.84
2018-10-07T09:09:49.725Z,95914.19
2018-10-07T09:12:19.422Z,95918.47
2018-10-07T09:14:49.897Z,95912.48
2018-10-07T09:17:20.438Z,95919.64
2018-10-07T09:19:55.333Z,95924.67
2018-10-07T09:22:27.313Z,95932.81
2018-10-07T09:24:58.393Z,95929.76
2018-10-07T09:27:28.657Z,95932.56
2018-10-07T09:29:58.989Z,95939.16
2018-10-07T09:32:28.823Z,95940.26
2018-10-07T09:35:01.422Z,95950.31
2018-10-07T09:37:31.150Z,95955.58
2018-10-07T09:40:00.819Z,95959.91
2018-10-07T09:42:30.876Z,95961.73
2018-10-07T09:45:00.529Z,95963.03
2018-10-07T09:47:30.299Z,95961.53
2018-10-07T09:50:00.456Z,95976.66
2018-10-07T09:52:32.292Z,95983.52
2018-10-07T09:55:02.113Z,95982.81
2018-10-07T09:57:33.502Z,95987.20
2018-10-07T10:00:03.253Z,95986.71
2018-10-07T10:02:34.510Z,95997.31
2018-10-07T10:05:04.433Z,95995.71
2018-10-07T10:07:35.238Z,96001.73
2018-10-07T10:10:07.351Z,96002.59
2018-10-07T10:12:44.432Z,96011.45
2018-10-07T10:15:15.013Z,96017.12
2018-10-07T10:17:49.271Z,96014.25
2018-10-07T10:20:23.481Z,96020.47
2018-10-07T10:23:06.562Z,96021.68
2018-10-07T10:27:16.910Z,96034.16
2018-10-07T10:29:50.954Z,96045.44
2018-10-07T10:32:28.371Z,96046.09
2018-10-07T10:35:12.383Z,96039.25
2018-10-07T10:37:51.860Z,96052.00
2018-10-07T10:40:29.373Z,96060.08
2018-10-07T10:43:14.468Z,96058.05
2018-10-07T10:46:12.152Z,96059.63
2018-10-07T10:48:50.065Z,96062.07
2018-10-07T10:51:29.530Z,96063.97
2018-10-07T10:56:10.807Z,96068.31
2018-10-07T10:59:19.353Z,96069.77
2018-10-07T11:02:04.235Z,96074.46
2018-10-07T11:04:49.876Z,96074.76
2018-10-07T11:07:23.530Z,96077.70
2018-10-07T11:11:01.395Z,96074.46
2018-10-07T11:13:38.781Z,96069.31
2018-10-07T11:16:16.670Z,96075.21
2018-10-07T11:18:55.321Z,96075.73
2018-10-07T11:21:36.636Z,96078.99
2018-10-07T11:24:19.300Z,96079.87
2018-10-07T11:26:58.709Z,96083.63
2018-10-07T11:30:41.376Z,96088.44
2018-10-07T11:34:52.243Z,96091.62
2018-10-07T11:37:32.984Z,96095.11
2018-10-07T11:40:15.548Z,96099.39
2018-10-07T11:43:07.366Z,96106.38
2018-10-07T11:45:45.393Z,96100.16
2018-10-07T11:48:30.212Z,96093.97
2018-10-07T11:51:06.747Z,96100.34
2018-10-07T11:53:45.436Z,96103.02
2018-10-07T11:56:17.429Z,96105.23
2018-10-07T11:58:48.166Z,96107.88
2018-10-07T12:01:20.704Z,96103.36
2018-10-07T12:03:52.064Z,96106.06
2018-10-07T12:06:25.021Z,96107.48
2018-10-07T12:08:55.704Z,96113.45
2018-10-07T12:11:25.852Z,96119.38
2018-10-07T12:14:11.901Z,96114.59
2018-10-07T12:16:44.854Z,96113.83
2018-10-07T12:19:17.148Z,96124.30
2018-10-07T12:21:51.362Z,96125.14
2018-10-07T12:24:22.495Z,96124.35
2018-10-07T12:26:52.777Z,96126.22
2018-10-07T12:29:22.926Z,96130.25
2018-10-07T12:31:57.848Z,96124.35
2018-10-07T12:34:29.354Z,96124.34
2018-10-07T12:37:00.480Z,96131.83
2018-10-07T12:39:31.533Z,96133.47
2018-10-07T12:42:03.768Z,96127.52
2018-10-07T12:44:35.834Z,96125.62
2018-10-07T12:47:06.452Z,96130.98
2018-10-07T12:49:38.241Z,96133.89
2018-10-07T12:52:11.502Z,96140.88
2018-10-07T12:54:42.426Z,96138.98
2018-10-07T12:57:13.110Z,96143.78
2018-10-07T12:59:44.590Z,96152.41
2018-10-07T13:09:13.442Z,96153.19
2018-10-07T13:11:45.051Z,96155.92
2018-10-07T13:14:18.117Z,96158.94
2018-10-07T13:16:50.007Z,96164.05
2018-10-07T13:19:20.311Z,96167.53
2018-10-07T13:21:51.534Z,96176.14
2018-10-07T13:24:23.615Z,96165.93
2018-10-07T13:26:57.994Z,96180.45
2018-10-07T13:29:29.335Z,96177.81
2018-10-07T13:32:01.036Z,96177.27
2018-10-07T13:34:31.353Z,96185.07
2018-10-07T13:37:02.659Z,96192.63
2018-10-07T13:39:34.728Z,96189.48
2018-10-07T13:42:06.478Z,96207.52
2018-10-07T13:44:39.525Z,96200.58
2018-10-07T13:47:09.623Z,96203.54
2018-10-07T13:49:41.313Z,96207.85
2018-10-07T13:52:12.597Z,96208.40
2018-10-07T13:54:43.659Z,96212.94
2018-10-07T13:57:14.407Z,96214.27
2018-10-07T13:59:50.415Z,96212.63
2018-10-07T14:02:23.049Z,96205.65
2018-10-07T14:04:54.397Z,96209.11
2018-10-07T14:07:24.616Z,96219.55
2018-10-07T14:09:56.006Z,96219.03
2018-10-07T14:12:26.737Z,96210.98
2018-10-07T14:14:57.282Z,96221.66
2018-10-07T14:17:32.307Z,96223.28
2018-10-07T14:20:04.837Z,96228.37
2018-10-07T14:22:36.345Z,96223.52
2018-10-07T14:25:07.135Z,96224.05
2018-10-07T14:27:39.799Z,96225.39
2018-10-07T14:30:12.288Z,96228.63
2018-10-07T14:32:42.982Z,96231.31
2018-10-07T14:35:13.904Z,96228.37
2018-10-07T14:37:45.427Z,96233.48
2018-10-07T14:40:19.724Z,96228.66
2018-10-07T14:42:51.601Z,96239.05
2018-10-07T14:45:21.903Z,96247.30
2018-10-07T14:47:56.338Z,96251.05
2018-10-07T14:50:27.597Z,96254.80
2018-10-07T14:52:57.641Z,96259.11
2018-10-07T14:55:28.726Z,96269.52
2018-10-07T14:58:01.585Z,96268.44
2018-10-07T15:00:32.760Z,96264.92
2018-10-07T15:03:04.629Z,96265.72
2018-10-07T15:05:37.488Z,96280.44
2018-10-07T15:08:25.459Z,96282.02
2018-10-07T15:10:55.737Z,96283.06
2018-10-07T15:13:28.517Z,96287.63
2018-10-07T15:15:59.832Z,96283.36
2018-10-07T15:18:30.483Z,96286.27
2018-10-07T15:21:03.021Z,96291.63
2018-10-07T15:23:35.639Z,96297.78
2018-10-07T15:26:07.559Z,96300.19
2018-10-07T15:28:43.577Z,96299.40
2018-10-07T15:31:16.507Z,96310.05
2018-10-07T15:33:48.966Z,96317.84
2018-10-07T15:36:20.623Z,96324.23
2018-10-07T15:38:50.737Z,96309.77
2018-10-07T15:41:20.872Z,96311.33
2018-10-07T15:46:54.463Z,96326.28
2018-10-07T15:50:01.687Z,96327.37
2018-10-07T15:52:52.941Z,96325.47
2018-10-07T15:55:26.575Z,96335.84
2018-10-07T15:57:58.709Z,96325.13
2018-10-07T16:00:29.415Z,96331.25
2018-10-07T16:03:00.314Z,96330.70
2018-10-07T16:05:30.380Z,96337.61
2018-10-07T16:08:11.528Z,96335.37
2018-10-07T16:10:42.549Z,96340.22
2018-10-07T16:13:17.140Z,96343.43
2018-10-07T16:15:47.273Z,96338.61
2018-10-07T16:18:17.611Z,96346.44
2018-10-07T16:20:49.103Z,96349.67
2018-10-07T16:23:19.403Z,96343.70
2018-10-07T16:25:50.669Z,96353.88
2018-10-07T16:28:20.969Z,96357.67
2018-10-07T16:30:56.343Z,96352.63
2018-10-07T16:33:27.677Z,96355.00
2018-10-07T16:36:03.171Z,96356.61
2018-10-07T16:38:34.430Z,96360.63
2018-10-07T16:41:05.443Z,96360.94
2018-10-07T16:43:37.535Z,96371.08
2018-10-07T16:46:17.688Z,96368.66
2018-10-07T16:48:49.698Z,96368.87
2018-10-07T16:51:22.950Z,96371.58
2018-10-07T16:53:56.723Z,96375.28
2018-10-07T16:56:28.465Z,96384.58
2018-10-07T16:58:59.347Z,96392.99
2018-10-07T17:01:30.245Z,96398.02
2018-10-07T17:04:00.357Z,96406.09
2018-10-07T17:06:32.283Z,96406.89
2018-10-07T17:09:05.069Z,96419.14
2018-10-07T17:11:36.185Z,96421.53
2018-10-07T17:14:10.770Z,96432.14
2018-10-07T17:16:41.385Z,96438.47
2018-10-07T17:19:12.465Z,96437.13
2018-10-07T17:21:44.435Z,96433.77
2018-10-07T17:24:19.580Z,96451.71
2018-10-07T17:26:54.615Z,96450.09
2018-10-07T17:29:33.426Z,96450.94
2018-10-07T17:32:05.987Z,96447.66
2018-10-07T17:34:40.681Z,96449.60
2018-10-07T17:37:16.289Z,96463.38
2018-10-07T17:39:48.466Z,96470.26
2018-10-07T17:42:20.637Z,96473.89
2018-10-07T17:44:58.006Z,96480.14
2018-10-07T17:47:32.243Z,96486.02
2018-10-07T17:50:06.276Z,96484.02
2018-10-07T17:52:41.382Z,96480.53
2018-10-07T17:55:14.097Z,96486.13
2018-10-07T17:57:44.592Z,96489.08
2018-10-07T18:00:21.122Z,96489.19
2018-10-07T18:02:51.516Z,96496.30
2018-10-07T18:05:22.096Z,96498.11
2018-10-07T18:07:53.771Z,96500.11
2018-10-07T18:10:24.493Z,96506.36
2018-10-07T18:12:57.405Z,96500.78
2018-10-07T18:15:33.336Z,96500.50
2018-10-07T18:18:04.357Z,96495.54
2018-10-07T18:20:37.339Z,96497.16
2018-10-07T18:23:10.805Z,96505.16
2018-10-07T18:25:41.677Z,96512.28
2018-10-07T18:28:13.702Z,96512.79
2018-10-07T18:30:45.166Z,96512.80
2018-10-07T18:33:15.816Z,96518.72
2018-10-07T18:38:23.476Z,96521.19
2018-10-07T18:40:56.676Z,96524.11
2018-10-07T18:43:29.675Z,96532.94
2018-10-07T18:46:01.138Z,96527.06
2018-10-07T18:48:31.548Z,96525.01
2018-10-07T18:51:03.545Z,96536.98
2018-10-07T18:53:35.566Z,96531.41
2018-10-07T18:56:10.955Z,96532.78
2018-10-07T18:58:42.175Z,96537.51
2018-10-07T19:01:13.322Z,96525.05
2018-10-07T19:03:44.525Z,96522.80
2018-10-07T19:06:16.706Z,96521.02
2018-10-07T19:08:47.416Z,96519.23
2018-10-07T19:11:24.354Z,96520.66
2018-10-07T19:13:56.499Z,96516.89
2018-10-07T19:16:28.444Z,96516.66
2018-10-07T19:18:59.782Z,96510.08
2018-10-07T19:21:34.265Z,96508.73
2018-10-07T19:24:04.385Z,96515.38
2018-10-07T19:26:36.449Z,96523.48
2018-10-07T19:29:07.629Z,96522.14
2018-10-07T19:31:41.544Z,96536.27
2018-10-07T19:34:13.503Z,96534.69
2018-10-07T19:36:49.442Z,96534.18
2018-10-07T19:39:25.788Z,96536.04
2018-10-07T19:41:57.843Z,96533.08
2018-10-07T19:44:29.410Z,96541.73
2018-10-07T19:47:01.426Z,96532.67
2018-10-07T19:49:35.995Z,96535.89
2018-10-07T19:52:08.839Z,96538.25
2018-10-07T19:54:40.846Z,96535.20
2018-10-07T19:57:14.949Z,96531.20
2018-10-07T19:59:47.499Z,96539.78
2018-10-07T20:02:19.748Z,96541.64
2018-10-07T20:04:51.544Z,96546.51
2018-10-07T20:07:22.636Z,96546.22
2018-10-07T20:09:52.786Z,96547.55
2018-10-07T20:12:25.384Z,96543.84
2018-10-07T20:15:00.161Z,96549.77
2018-10-07T20:17:31.390Z,96544.41
2018-10-07T20:20:03.293Z,96549.23
2018-10-07T20:22:34.023Z,96553.42
2018-10-07T20:25:05.490Z,96555.50
2018-10-07T20:27:35.223Z,96548.66
2018-10-07T20:30:06.105Z,96552.66
2018-10-07T20:32:43.458Z,96547.61
2018-10-07T20:35:14.466Z,96559.51
2018-10-07T20:37:46.457Z,96547.22
2018-10-07T20:40:16.161Z,96555.91
2018-10-07T20:42:46.793Z,96560.20
2018-10-07T20:45:19.561Z,96554.92
2018-10-07T20:47:50.690Z,96556.67
2018-10-07T20:50:20.437Z,96558.95
2018-10-07T20:56:11.278Z,96555.77
2018-10-07T20:58:45.386Z,96555.69
2018-10-07T21:01:19.173Z,96550.30
2018-10-07T21:03:50.309Z,96551.05
2018-10-07T21:06:25.261Z,96546.25
2018-10-07T21:08:55.701Z,96546.02
2018-10-07T21:11:30.857Z,96550.88
2018-10-07T21:14:00.504Z,96540.72
2018-10-07T21:16:31.022Z,96535.85
2018-10-07T21:19:00.886Z,96538.22
2018-10-07T21:21:31.401Z,96542.29
2018-10-07T21:24:01.516Z,96535.38
2018-10-07T21:26:31.485Z,96536.19
2018-10-07T21:29:01.412Z,96535.19
2018-10-07T21:31:31.381Z,96533.52
2018-10-07T21:34:02.311Z,96532.99
2018-10-07T21:36:40.183Z,96538.38
2018-10-07T21:39:11.357Z,96539.50
2018-10-07T21:41:41.064Z,96537.20
2018-10-07T21:44:14.598Z,96540.16
2018-10-07T21:46:48.076Z,96539.94
2018-10-07T21:49:17.690Z,96533.55
2018-10-07T21:51:49.295Z,96539.06
2018-10-07T21:54:18.965Z,96532.93
2018-10-07T21:56:49.326Z,96531.58
2018-10-07T21:59:19.813Z,96527.59
2018-10-07T22:01:49.438Z,96521.77
2018-10-07T22:04:19.060Z,96521.94
2018-10-07T22:06:49.531Z,96524.09
2018-10-07T22:09:19.180Z,96518.47
2018-10-07T22:11:48.845Z,96521.70
2018-10-07T22:14:23.465Z,96522.25
2018-10-07T22:16:53.101Z,96523.91
2018-10-07T22:19:23.113Z,96528.97
2018-10-07T22:21:52.729Z,96527.33
2018-10-07T22:24:22.357Z,96528.14
2018-10-07T22:26:52.025Z,96526.47
2018-10-07T22:29:22.177Z,96525.37
2018-10-07T22:31:52.374Z,96536.63
2018-10-07T22:34:23.593Z,96537.40
2018-10-07T22:36:54.362Z,96530.20
2018-10-07T22:39:25.390Z,96532.05
2018-10-07T22:41:55.037Z,96527.03
2018-10-07T22:44:26.020Z,96528.94
2018-10-07T22:46:56.430Z,96520.88
2018-10-07T22:56:10.912Z,96533.75
2018-10-07T22:58:42.200Z,96522.67
2018-10-07T23:01:14.967Z,96521.86
2018-10-07T23:03:46.557Z,96524.25
2018-10-07T23:06:17.420Z,96525.06
2018-10-07T23:08:48.065Z,96524.77
2018-10-07T23:11:19.341Z,96523.77
2018-10-07T23:13:51.273Z,96520.36
2018-10-07T23:16:23.278Z,96520.64
2018-10-07T23:18:53.313Z,96521.73
2018-10-07T23:21:23.985Z,96513.97
2018-10-07T23:23:53.583Z,96515.63
2018-10-07T23:26:23.188Z,96515.34
2018-10-07T23:28:53.187Z,96516.73
2018-10-07T23:31:22.813Z,96515.45
2018-10-07T23:33:53.097Z,96516.80
2018-10-07T23:36:23.376Z,96513.59
2018-10-07T23:38:54.017Z,96517.08
2018-10-07T23:41:24.324Z,96509.87
2018-10-07T23:43:57.948Z,96508.06
2018-10-07T23:46:27.570Z,96509.40
2018-10-07T23:48:58.149Z,96518.47
2018-10-07T23:51:29.062Z,96523.00
2018-10-07T23:53:58.764Z,96518.80
2018-10-07T23:56:28.402Z,96514.52
2018-10-07T23:58:58.229Z,96514.23
